Terminal Aerodrome Forecast
Issued by NWS

Home | Current Version | Previous Version | Text Only | Print | Product List | Glossary On
Versions: 1 2 3 4 5 6 7 8 9 10 11 12 13 14 15 16 17 18 19
743
FTUS43 KDVN 150732 AAA
TAFCID
TAF AMD
KCID 150732Z 1508/1606 30016G26KT P6SM OVC015
     FM151200 31020G30KT P6SM OVC015
     FM151600 31015G23KT P6SM SCT020
     FM152000 29006KT P6SM SKC=

USA.gov is the U.S. government's official web portal to all federal, state and local government web resources and services.